sensor_id;sensor_type;location;lat;lon;timestamp;pressure;altitude;pressure_sealevel;temperature;humidity
3464;BME280;3551;41.578;24.706;2023-03-15T00:01:19;90258.81;;;3.89;69.51
3464;BME280;3551;41.578;24.706;2023-03-15T00:03:48;90258.78;;;3.82;70.29
3464;BME280;3551;41.578;24.706;2023-03-15T00:06:20;90249.78;;;3.97;69.57
3464;BME280;3551;41.578;24.706;2023-03-15T00:08:47;90244.50;;;3.94;69.21
3464;BME280;3551;41.578;24.706;2023-03-15T00:11:16;90239.97;;;4.05;68.42
3464;BME280;3551;41.578;24.706;2023-03-15T00:13:43;90237.34;;;4.12;67.99
3464;BME280;3551;41.578;24.706;2023-03-15T00:16:11;90230.88;;;3.95;69.59
3464;BME280;3551;41.578;24.706;2023-03-15T00:18:42;90223.31;;;3.87;70.47
3464;BME280;3551;41.578;24.706;2023-03-15T00:21:12;90227.13;;;3.96;69.14
3464;BME280;3551;41.578;24.706;2023-03-15T00:23:40;90224.13;;;4.05;67.73
3464;BME280;3551;41.578;24.706;2023-03-15T00:26:07;90217.28;;;3.93;67.63
3464;BME280;3551;41.578;24.706;2023-03-15T00:28:34;90218.34;;;3.71;68.90
3464;BME280;3551;41.578;24.706;2023-03-15T00:31:04;90211.84;;;3.51;70.61
3464;BME280;3551;41.578;24.706;2023-03-15T00:33:32;90207.38;;;3.66;70.26
3464;BME280;3551;41.578;24.706;2023-03-15T00:36:01;90196.16;;;3.07;72.02
3464;BME280;3551;41.578;24.706;2023-03-15T00:38:28;90190.59;;;3.30;71.40
3464;BME280;3551;41.578;24.706;2023-03-15T00:40:58;90186.22;;;3.59;70.20
3464;BME280;3551;41.578;24.706;2023-03-15T00:43:25;90179.81;;;3.70;69.74
3464;BME280;3551;41.578;24.706;2023-03-15T00:45:52;90180.97;;;3.73;70.37
3464;BME280;3551;41.578;24.706;2023-03-15T00:48:18;90176.34;;;3.49;70.18
3464;BME280;3551;41.578;24.706;2023-03-15T00:50:47;90173.38;;;3.68;69.76
3464;BME280;3551;41.578;24.706;2023-03-15T00:53:14;90174.88;;;3.62;70.22
3464;BME280;3551;41.578;24.706;2023-03-15T00:55:41;90173.03;;;3.80;69.63
3464;BME280;3551;41.578;24.706;2023-03-15T00:58:08;90170.03;;;3.92;69.37
3464;BME280;3551;41.578;24.706;2023-03-15T01:00:35;90168.56;;;4.02;70.87
3464;BME280;3551;41.578;24.706;2023-03-15T01:03:02;90168.56;;;4.16;72.55
3464;BME280;3551;41.578;24.706;2023-03-15T01:05:29;90169.69;;;4.01;69.90
3464;BME280;3551;41.578;24.706;2023-03-15T01:07:58;90167.81;;;3.94;69.19
3464;BME280;3551;41.578;24.706;2023-03-15T01:10:27;90172.34;;;4.04;67.86
3464;BME280;3551;41.578;24.706;2023-03-15T01:12:56;90164.78;;;4.13;67.50
3464;BME280;3551;41.578;24.706;2023-03-15T01:15:23;90161.25;;;3.56;69.34
3464;BME280;3551;41.578;24.706;2023-03-15T01:17:50;90156.72;;;3.57;68.69
3464;BME280;3551;41.578;24.706;2023-03-15T01:20:18;90152.25;;;3.75;68.10
3464;BME280;3551;41.578;24.706;2023-03-15T01:22:46;90141.97;;;3.45;69.11
3464;BME280;3551;41.578;24.706;2023-03-15T01:25:14;90144.31;;;3.64;68.89
3464;BME280;3551;41.578;24.706;2023-03-15T01:27:41;90140.13;;;3.60;68.47
3464;BME280;3551;41.578;24.706;2023-03-15T01:30:10;90136.34;;;3.54;69.15
3464;BME280;3551;41.578;24.706;2023-03-15T01:32:37;90139.66;;;3.33;70.94
3464;BME280;3551;41.578;24.706;2023-03-15T01:35:04;90133.69;;;3.47;72.12
3464;BME280;3551;41.578;24.706;2023-03-15T01:37:31;90133.72;;;3.71;69.96
3464;BME280;3551;41.578;24.706;2023-03-15T01:40:01;90126.94;;;3.63;69.31
3464;BME280;3551;41.578;24.706;2023-03-15T01:42:39;90133.19;;;3.09;70.70
3464;BME280;3551;41.578;24.706;2023-03-15T01:48:02;90134.81;;;3.46;70.14
3464;BME280;3551;41.578;24.706;2023-03-15T01:50:28;90129.16;;;3.47;69.64
3464;BME280;3551;41.578;24.706;2023-03-15T01:52:55;90129.56;;;3.53;68.84
3464;BME280;3551;41.578;24.706;2023-03-15T01:55:22;90131.75;;;3.36;70.50
3464;BME280;3551;41.578;24.706;2023-03-15T01:57:51;90131.41;;;3.38;69.94
3464;BME280;3551;41.578;24.706;2023-03-15T02:00:20;90135.84;;;3.16;70.52
3464;BME280;3551;41.578;24.706;2023-03-15T02:02:50;90135.84;;;3.20;69.82
3464;BME280;3551;41.578;24.706;2023-03-15T02:05:19;90131.34;;;3.27;70.21
3464;BME280;3551;41.578;24.706;2023-03-15T02:07:48;90133.22;;;3.27;70.11
3464;BME280;3551;41.578;24.706;2023-03-15T02:10:19;90126.44;;;3.26;69.86
3464;BME280;3551;41.578;24.706;2023-03-15T02:12:49;90130.59;;;3.30;69.59
3464;BME280;3551;41.578;24.706;2023-03-15T02:15:19;90122.63;;;3.20;69.55
3464;BME280;3551;41.578;24.706;2023-03-15T02:17:47;90128.97;;;3.01;71.07
3464;BME280;3551;41.578;24.706;2023-03-15T02:20:17;90125.28;;;3.20;70.93
3464;BME280;3551;41.578;24.706;2023-03-15T02:22:52;90128.28;;;3.15;70.19
3464;BME280;3551;41.578;24.706;2023-03-15T02:25:21;90120.34;;;3.11;70.24
3464;BME280;3551;41.578;24.706;2023-03-15T02:27:53;90119.19;;;3.05;70.83
3464;BME280;3551;41.578;24.706;2023-03-15T02:30:21;90121.16;;;3.33;70.74
3464;BME280;3551;41.578;24.706;2023-03-15T02:32:48;90118.09;;;3.13;71.46
3464;BME280;3551;41.578;24.706;2023-03-15T02:35:21;90118.72;;;2.86;72.84
3464;BME280;3551;41.578;24.706;2023-03-15T02:37:48;90120.22;;;2.83;71.91
3464;BME280;3551;41.578;24.706;2023-03-15T02:40:16;90118.81;;;3.10;70.68
3464;BME280;3551;41.578;24.706;2023-03-15T02:42:47;90115.38;;;2.99;70.56
3464;BME280;3551;41.578;24.706;2023-03-15T02:45:18;90112.44;;;3.11;69.61
3464;BME280;3551;41.578;24.706;2023-03-15T02:47:46;90104.81;;;2.96;70.21
3464;BME280;3551;41.578;24.706;2023-03-15T02:50:15;90109.66;;;2.87;71.16
3464;BME280;3551;41.578;24.706;2023-03-15T02:52:42;90111.19;;;2.88;72.00
3464;BME280;3551;41.578;24.706;2023-03-15T02:55:10;90118.28;;;2.73;72.49
3464;BME280;3551;41.578;24.706;2023-03-15T02:57:37;90119.06;;;2.80;72.35
3464;BME280;3551;41.578;24.706;2023-03-15T03:00:04;90114.28;;;3.07;71.62
3464;BME280;3551;41.578;24.706;2023-03-15T03:02:41;90116.06;;;2.82;70.91
3464;BME280;3551;41.578;24.706;2023-03-15T03:05:09;90103.63;;;2.82;71.64
3464;BME280;3551;41.578;24.706;2023-03-15T03:07:38;90108.22;;;3.00;73.69
3464;BME280;3551;41.578;24.706;2023-03-15T03:10:10;90089.81;;;3.17;74.98
3464;BME280;3551;41.578;24.706;2023-03-15T03:12:39;90085.66;;;3.16;74.00
3464;BME280;3551;41.578;24.706;2023-03-15T03:15:08;90089.84;;;3.28;72.93
3464;BME280;3551;41.578;24.706;2023-03-15T03:17:44;90091.63;;;2.99;71.85
3464;BME280;3551;41.578;24.706;2023-03-15T03:20:12;90084.38;;;2.82;71.45
3464;BME280;3551;41.578;24.706;2023-03-15T03:22:41;90079.44;;;2.08;73.74
3464;BME280;3551;41.578;24.706;2023-03-15T03:25:10;90076.22;;;2.33;73.39
3464;BME280;3551;41.578;24.706;2023-03-15T03:27:37;90076.97;;;2.37;73.71
3464;BME280;3551;41.578;24.706;2023-03-15T03:30:04;90069.97;;;2.62;73.79
3464;BME280;3551;41.578;24.706;2023-03-15T03:32:32;90070.47;;;2.92;72.98
3464;BME280;3551;41.578;24.706;2023-03-15T03:35:00;90068.25;;;2.98;72.42
3464;BME280;3551;41.578;24.706;2023-03-15T03:37:29;90064.72;;;2.65;73.29
3464;BME280;3551;41.578;24.706;2023-03-15T03:39:57;90072.63;;;2.69;72.65
3464;BME280;3551;41.578;24.706;2023-03-15T03:42:24;90068.19;;;2.91;72.08
3464;BME280;3551;41.578;24.706;2023-03-15T03:44:51;90074.66;;;2.97;70.88
3464;BME280;3551;41.578;24.706;2023-03-15T03:47:19;90070.13;;;3.04;70.66
3464;BME280;3551;41.578;24.706;2023-03-15T03:49:45;90066.31;;;2.91;71.06
3464;BME280;3551;41.578;24.706;2023-03-15T03:52:14;90054.94;;;2.76;71.85
3464;BME280;3551;41.578;24.706;2023-03-15T03:54:41;90061.78;;;2.88;71.73
3464;BME280;3551;41.578;24.706;2023-03-15T03:57:09;90063.66;;;2.88;71.90
3464;BME280;3551;41.578;24.706;2023-03-15T03:59:36;90070.38;;;2.74;73.17
3464;BME280;3551;41.578;24.706;2023-03-15T04:02:03;90062.63;;;3.06;72.26
3464;BME280;3551;41.578;24.706;2023-03-15T04:04:31;90055.41;;;3.00;71.95
3464;BME280;3551;41.578;24.706;2023-03-15T04:06:58;90053.19;;;3.12;71.07
3464;BME280;3551;41.578;24.706;2023-03-15T04:09:26;90046.03;;;3.27;71.88
3464;BME280;3551;41.578;24.706;2023-03-15T04:11:53;90044.94;;;3.42;74.54
3464;BME280;3551;41.578;24.706;2023-03-15T04:14:20;90052.38;;;2.91;72.50
3464;BME280;3551;41.578;24.706;2023-03-15T04:16:47;90041.06;;;2.97;72.28
3464;BME280;3551;41.578;24.706;2023-03-15T04:19:14;90040.28;;;2.82;72.06
3464;BME280;3551;41.578;24.706;2023-03-15T04:21:41;90041.38;;;2.81;71.93
3464;BME280;3551;41.578;24.706;2023-03-15T04:24:12;90038.72;;;2.78;72.23
3464;BME280;3551;41.578;24.706;2023-03-15T04:26:40;90044.06;;;2.85;71.70
3464;BME280;3551;41.578;24.706;2023-03-15T04:29:07;90047.44;;;2.89;72.22
3464;BME280;3551;41.578;24.706;2023-03-15T04:31:35;90041.09;;;3.08;70.85
3464;BME280;3551;41.578;24.706;2023-03-15T04:34:03;90034.28;;;3.07;71.29
3464;BME280;3551;41.578;24.706;2023-03-15T04:36:31;90041.53;;;3.20;71.25
3464;BME280;3551;41.578;24.706;2023-03-15T04:38:59;90044.88;;;3.10;71.53
3464;BME280;3551;41.578;24.706;2023-03-15T04:41:29;90052.09;;;3.24;71.02
3464;BME280;3551;41.578;24.706;2023-03-15T04:43:58;90055.88;;;3.33;70.94
3464;BME280;3551;41.578;24.706;2023-03-15T04:46:25;90043.81;;;3.39;71.13
3464;BME280;3551;41.578;24.706;2023-03-15T04:48:52;90048.38;;;3.46;72.57
3464;BME280;3551;41.578;24.706;2023-03-15T04:51:19;90050.63;;;3.40;72.13
3464;BME280;3551;41.578;24.706;2023-03-15T04:53:47;90051.72;;;3.29;71.70
3464;BME280;3551;41.578;24.706;2023-03-15T06:07:51;90031.91;;;6.68;57.73
3464;BME280;3551;41.578;24.706;2023-03-15T06:10:30;90031.31;;;6.53;57.53
3464;BME280;3551;41.578;24.706;2023-03-15T06:12:59;90038.38;;;6.26;58.36
3464;BME280;3551;41.578;24.706;2023-03-15T06:15:27;90031.75;;;6.00;60.42
3464;BME280;3551;41.578;24.706;2023-03-15T06:17:54;90021.91;;;5.97;63.54
3464;BME280;3551;41.578;24.706;2023-03-15T06:20:21;90017.25;;;6.12;63.84
3464;BME280;3551;41.578;24.706;2023-03-15T06:22:58;90013.69;;;6.29;62.66
3464;BME280;3551;41.578;24.706;2023-03-15T06:25:43;90010.63;;;6.31;65.22
3464;BME280;3551;41.578;24.706;2023-03-15T07:17:43;89995.13;;;7.00;57.70
3464;BME280;3551;41.578;24.706;2023-03-15T07:41:00;90001.16;;;7.34;43.08
3464;BME280;3551;41.578;24.706;2023-03-15T07:51:22;89998.59;;;7.81;40.54
3464;BME280;3551;41.578;24.706;2023-03-15T07:53:49;89994.69;;;8.12;41.08
3464;BME280;3551;41.578;24.706;2023-03-15T07:56:23;89994.00;;;8.08;38.94
3464;BME280;3551;41.578;24.706;2023-03-15T07:59:01;90000.44;;;8.11;39.61
3464;BME280;3551;41.578;24.706;2023-03-15T08:04:03;90007.09;;;8.22;39.55
3464;BME280;3551;41.578;24.706;2023-03-15T08:11:49;90007.78;;;8.49;37.23
3464;BME280;3551;41.578;24.706;2023-03-15T08:30:03;89974.91;;;9.38;36.16
3464;BME280;3551;41.578;24.706;2023-03-15T08:32:40;89969.38;;;9.81;36.05
3464;BME280;3551;41.578;24.706;2023-03-15T08:35:13;89957.53;;;10.18;36.54
3464;BME280;3551;41.578;24.706;2023-03-15T08:37:42;89955.41;;;10.09;38.28
3464;BME280;3551;41.578;24.706;2023-03-15T08:40:11;89950.41;;;10.28;40.81
3464;BME280;3551;41.578;24.706;2023-03-15T08:42:41;89966.00;;;10.45;40.22
3464;BME280;3551;41.578;24.706;2023-03-15T08:45:12;89954.97;;;10.43;42.33
3464;BME280;3551;41.578;24.706;2023-03-15T08:47:40;89960.56;;;10.49;40.87
3464;BME280;3551;41.578;24.706;2023-03-15T08:50:09;89959.66;;;10.55;43.85
3464;BME280;3551;41.578;24.706;2023-03-15T08:52:49;89955.09;;;10.68;43.49
3464;BME280;3551;41.578;24.706;2023-03-15T08:55:16;89951.09;;;10.60;42.19
3464;BME280;3551;41.578;24.706;2023-03-15T09:00:22;89963.16;;;10.36;46.72
3464;BME280;3551;41.578;24.706;2023-03-15T09:05:25;89958.22;;;10.02;43.65
3464;BME280;3551;41.578;24.706;2023-03-15T09:07:57;89955.47;;;10.54;44.24
3464;BME280;3551;41.578;24.706;2023-03-15T09:10:26;89952.84;;;10.67;40.99
3464;BME280;3551;41.578;24.706;2023-03-15T09:18:10;89954.59;;;11.02;43.49
3464;BME280;3551;41.578;24.706;2023-03-15T09:20:40;89948.31;;;11.09;41.37
3464;BME280;3551;41.578;24.706;2023-03-15T09:23:10;89951.84;;;11.06;43.21
3464;BME280;3551;41.578;24.706;2023-03-15T09:25:43;89954.69;;;10.99;43.89
3464;BME280;3551;41.578;24.706;2023-03-15T09:28:13;89956.22;;;10.84;42.03
3464;BME280;3551;41.578;24.706;2023-03-15T11:02:11;89916.31;;;11.05;44.84
3464;BME280;3551;41.578;24.706;2023-03-15T11:10:39;89939.81;;;10.69;45.74
3464;BME280;3551;41.578;24.706;2023-03-15T11:44:39;89934.69;;;9.65;46.00
3464;BME280;3551;41.578;24.706;2023-03-15T11:47:25;89941.34;;;9.57;45.81
3464;BME280;3551;41.578;24.706;2023-03-15T11:49:56;89929.56;;;9.54;45.16
3464;BME280;3551;41.578;24.706;2023-03-15T11:52:28;89933.78;;;9.72;46.86
3464;BME280;3551;41.578;24.706;2023-03-15T11:55:06;89929.84;;;9.76;48.56
3464;BME280;3551;41.578;24.706;2023-03-15T12:13:19;89913.50;;;9.22;47.91
3464;BME280;3551;41.578;24.706;2023-03-15T12:34:45;89903.72;;;9.51;49.24
3464;BME280;3551;41.578;24.706;2023-03-15T12:50:36;89897.13;;;9.04;52.52
3464;BME280;3551;41.578;24.706;2023-03-15T12:53:03;89895.34;;;8.97;53.04
3464;BME280;3551;41.578;24.706;2023-03-15T12:55:38;89894.28;;;9.11;52.25
3464;BME280;3551;41.578;24.706;2023-03-15T12:58:08;89889.28;;;9.49;51.62
3464;BME280;3551;41.578;24.706;2023-03-15T13:00:35;89878.44;;;9.72;51.71
3464;BME280;3551;41.578;24.706;2023-03-15T13:03:03;89878.03;;;9.57;51.16
3464;BME280;3551;41.578;24.706;2023-03-15T13:05:32;89869.59;;;9.75;52.82
3464;BME280;3551;41.578;24.706;2023-03-15T13:08:06;89875.22;;;9.65;50.75
3464;BME280;3551;41.578;24.706;2023-03-15T13:10:36;89887.78;;;9.96;51.02
3464;BME280;3551;41.578;24.706;2023-03-15T13:23:33;89884.38;;;9.96;48.78
3464;BME280;3551;41.578;24.706;2023-03-15T13:26:13;89873.88;;;9.73;49.34
3464;BME280;3551;41.578;24.706;2023-03-15T13:28:46;89874.44;;;9.96;48.92
3464;BME280;3551;41.578;24.706;2023-03-15T13:31:20;89871.69;;;10.16;48.76
3464;BME280;3551;41.578;24.706;2023-03-15T13:33:51;89870.59;;;10.13;50.46
3464;BME280;3551;41.578;24.706;2023-03-15T13:36:23;89863.13;;;9.92;50.14
3464;BME280;3551;41.578;24.706;2023-03-15T13:38:54;89861.75;;;10.16;49.76
3464;BME280;3551;41.578;24.706;2023-03-15T13:41:22;89855.41;;;10.27;51.33
3464;BME280;3551;41.578;24.706;2023-03-15T13:43:50;89850.22;;;10.20;50.88
3464;BME280;3551;41.578;24.706;2023-03-15T13:46:19;89848.75;;;10.19;51.51
3464;BME280;3551;41.578;24.706;2023-03-15T13:48:46;89838.44;;;10.33;49.42
3464;BME280;3551;41.578;24.706;2023-03-15T13:51:16;89853.75;;;10.16;52.75
3464;BME280;3551;41.578;24.706;2023-03-15T13:53:45;89856.03;;;10.31;50.99
3464;BME280;3551;41.578;24.706;2023-03-15T13:56:15;89854.50;;;10.17;52.63
3464;BME280;3551;41.578;24.706;2023-03-15T13:58:43;89840.16;;;10.40;50.45
3464;BME280;3551;41.578;24.706;2023-03-15T14:01:11;89832.53;;;10.26;51.67
3464;BME280;3551;41.578;24.706;2023-03-15T14:03:39;89828.59;;;10.30;50.87
3464;BME280;3551;41.578;24.706;2023-03-15T14:06:08;89817.97;;;10.55;50.30
3464;BME280;3551;41.578;24.706;2023-03-15T14:08:37;89825.38;;;10.64;49.88
3464;BME280;3551;41.578;24.706;2023-03-15T14:11:05;89815.69;;;10.41;49.90
3464;BME280;3551;41.578;24.706;2023-03-15T14:13:45;89819.16;;;10.54;50.26
3464;BME280;3551;41.578;24.706;2023-03-15T14:16:14;89828.22;;;10.44;50.89
3464;BME280;3551;41.578;24.706;2023-03-15T14:18:42;89822.22;;;10.40;49.84
3464;BME280;3551;41.578;24.706;2023-03-15T14:21:13;89818.31;;;10.29;50.49
3464;BME280;3551;41.578;24.706;2023-03-15T14:23:43;89831.06;;;10.37;49.09
3464;BME280;3551;41.578;24.706;2023-03-15T14:26:12;89811.84;;;10.13;50.35
3464;BME280;3551;41.578;24.706;2023-03-15T14:28:47;89811.66;;;10.21;50.04
3464;BME280;3551;41.578;24.706;2023-03-15T14:31:18;89808.78;;;10.28;49.54
3464;BME280;3551;41.578;24.706;2023-03-15T14:33:50;89811.00;;;10.45;50.20
3464;BME280;3551;41.578;24.706;2023-03-15T14:36:21;89799.66;;;10.12;51.17
3464;BME280;3551;41.578;24.706;2023-03-15T14:38:49;89814.72;;;10.35;50.31
3464;BME280;3551;41.578;24.706;2023-03-15T14:41:18;89799.94;;;10.31;49.88
3464;BME280;3551;41.578;24.706;2023-03-15T14:43:48;89808.75;;;9.99;50.57
3464;BME280;3551;41.578;24.706;2023-03-15T14:46:15;89809.44;;;9.87;51.74
3464;BME280;3551;41.578;24.706;2023-03-15T14:48:43;89805.97;;;9.74;52.95
3464;BME280;3551;41.578;24.706;2023-03-15T14:51:11;89816.31;;;9.72;53.66
3464;BME280;3551;41.578;24.706;2023-03-15T14:53:40;89824.06;;;9.82;52.81
3464;BME280;3551;41.578;24.706;2023-03-15T14:56:09;89831.91;;;9.73;54.82
3464;BME280;3551;41.578;24.706;2023-03-15T14:58:37;89827.41;;;9.70;53.78
3464;BME280;3551;41.578;24.706;2023-03-15T15:01:23;89837.69;;;9.72;52.51
3464;BME280;3551;41.578;24.706;2023-03-15T15:03:58;89826.72;;;9.82;53.20
3464;BME280;3551;41.578;24.706;2023-03-15T15:06:26;89832.06;;;9.82;53.92
3464;BME280;3551;41.578;24.706;2023-03-15T15:08:57;89831.41;;;9.46;53.86
3464;BME280;3551;41.578;24.706;2023-03-15T15:20:25;89833.66;;;9.31;57.70
3464;BME280;3551;41.578;24.706;2023-03-15T15:25:32;89844.03;;;9.45;55.34
3464;BME280;3551;41.578;24.706;2023-03-15T15:28:03;89843.34;;;9.41;55.05
3464;BME280;3551;41.578;24.706;2023-03-15T15:30:58;89843.84;;;9.52;54.75
